Time;durP1;ratioP1;P1;durP2;ratioP2;P2;SDS_P1;SDS_P2;PMS_P1;PMS_P2;Temp;Humidity;BMP_temperature;BMP_pressure;BME280_temperature;BME280_humidity;BME280_pressure;Samples;Min_cycle;Max_cycle;Signal;HPM_P1;HPM_P2
2021/10/19 00:02:13;;;;;;;28.42;17.80;;;;;;;;;;5054701;28;20477;-68
2021/10/19 00:04:39;;;;;;;25.65;16.50;;;;;;;;;;5054881;28;20035;-68
2021/10/19 00:07:05;;;;;;;25.60;16.30;;;;;;;;;;5054242;28;20093;-68
2021/10/19 00:09:31;;;;;;;25.92;17.17;;;;;;;;;;5054750;28;20023;-69
2021/10/19 00:11:57;;;;;;;27.02;16.65;;;;;;;;;;5054944;28;20056;-68
2021/10/19 00:14:23;;;;;;;28.17;17.40;;;;;;;;;;5054850;28;20082;-67
2021/10/19 00:16:49;;;;;;;27.85;17.80;;;;;;;;;;5054513;28;20347;-69
2021/10/19 00:19:15;;;;;;;27.63;17.05;;;;;;;;;;5077661;23;20075;-64
2021/10/19 00:21:41;;;;;;;24.55;16.13;;;;;;;;;;5071754;28;20024;-64
2021/10/19 00:24:07;;;;;;;26.00;16.95;;;;;;;;;;5071693;28;20021;-65
2021/10/19 00:26:33;;;;;;;27.35;17.52;;;;;;;;;;5071349;28;20128;-64
2021/10/19 00:28:59;;;;;;;25.38;16.35;;;;;;;;;;5071466;28;20574;-65
2021/10/19 00:31:25;;;;;;;28.17;17.77;;;;;;;;;;5071535;28;20073;-64
2021/10/19 00:33:51;;;;;;;27.30;18.40;;;;;;;;;;5071797;28;20020;-64
2021/10/19 00:36:17;;;;;;;27.45;17.63;;;;;;;;;;5071490;28;20602;-61
2021/10/19 00:38:43;;;;;;;27.30;17.08;;;;;;;;;;5071849;28;20161;-65
2021/10/19 00:41:09;;;;;;;25.73;16.60;;;;;;;;;;5071590;28;20035;-65
2021/10/19 00:43:35;;;;;;;26.08;16.42;;;;;;;;;;5071052;28;20554;-63
2021/10/19 00:46:01;;;;;;;26.75;16.42;;;;;;;;;;5071256;28;20188;-64
2021/10/19 00:48:28;;;;;;;28.27;17.15;;;;;;;;;;5071445;28;20120;-62
2021/10/19 00:50:55;;;;;;;27.55;17.42;;;;;;;;;;5071727;28;20234;-64
2021/10/19 00:53:22;;;;;;;26.63;16.48;;;;;;;;;;5072738;28;20028;-65
2021/10/19 00:55:48;;;;;;;27.40;17.00;;;;;;;;;;5070982;28;20112;-62
2021/10/19 00:58:14;;;;;;;25.80;16.77;;;;;;;;;;5071333;28;20029;-64
2021/10/19 01:00:40;;;;;;;29.48;17.30;;;;;;;;;;5071042;28;20028;-64
2021/10/19 01:03:06;;;;;;;24.70;16.48;;;;;;;;;;5071178;28;20123;-64
2021/10/19 01:05:34;;;;;;;26.35;17.10;;;;;;;;;;5070833;28;20029;-61
2021/10/19 01:08:00;;;;;;;30.08;18.42;;;;;;;;;;5070930;28;20034;-64
2021/10/19 01:10:26;;;;;;;25.13;16.60;;;;;;;;;;5070859;28;20025;-64
2021/10/19 01:12:52;;;;;;;25.00;16.15;;;;;;;;;;5070599;28;20468;-65
2021/10/19 01:15:18;;;;;;;25.63;16.58;;;;;;;;;;5070570;28;20020;-62
2021/10/19 01:17:48;;;;;;;26.48;16.70;;;;;;;;;;5070544;28;20062;-65
2021/10/19 01:20:28;;;;;;;27.08;16.33;;;;;;;;;;5070648;28;20404;-62
2021/10/19 01:22:55;;;;;;;27.88;16.55;;;;;;;;;;5070691;28;20158;-67
2021/10/19 01:25:22;;;;;;;28.38;17.05;;;;;;;;;;5070640;28;20476;-64
2021/10/19 01:27:49;;;;;;;27.63;16.75;;;;;;;;;;5070361;28;20032;-64
2021/10/19 01:30:16;;;;;;;25.35;15.60;;;;;;;;;;5070511;28;20460;-65
2021/10/19 01:32:42;;;;;;;26.17;15.45;;;;;;;;;;5070763;28;20431;-64
2021/10/19 01:35:09;;;;;;;24.33;16.05;;;;;;;;;;5070693;28;20025;-62
2021/10/19 01:37:35;;;;;;;25.48;16.25;;;;;;;;;;5070363;28;20040;-65
2021/10/19 01:40:01;;;;;;;25.25;15.35;;;;;;;;;;5070312;28;20431;-63
2021/10/19 01:42:27;;;;;;;27.58;16.35;;;;;;;;;;5070298;28;20063;-65
2021/10/19 01:44:53;;;;;;;24.77;15.25;;;;;;;;;;5070289;28;20052;-64
2021/10/19 01:47:19;;;;;;;23.67;15.25;;;;;;;;;;5070073;28;20032;-63
2021/10/19 01:49:45;;;;;;;24.20;15.88;;;;;;;;;;5070094;28;20024;-65
2021/10/19 01:52:11;;;;;;;24.48;15.70;;;;;;;;;;5070265;28;20074;-63
2021/10/19 01:54:37;;;;;;;25.90;16.15;;;;;;;;;;5070144;28;20047;-61
2021/10/19 01:57:03;;;;;;;26.83;15.35;;;;;;;;;;5069908;28;20476;-65
2021/10/19 01:59:29;;;;;;;25.85;16.35;;;;;;;;;;5070157;28;20529;-63
2021/10/19 02:01:55;;;;;;;23.33;14.93;;;;;;;;;;5070132;28;20021;-65
2021/10/19 02:04:21;;;;;;;24.70;16.08;;;;;;;;;;5070336;28;20098;-64
2021/10/19 02:06:47;;;;;;;24.10;15.60;;;;;;;;;;5069778;28;20491;-65
2021/10/19 02:09:13;;;;;;;26.60;15.48;;;;;;;;;;5070116;28;20036;-64
2021/10/19 02:11:39;;;;;;;24.85;14.85;;;;;;;;;;5070077;28;20016;-64
2021/10/19 02:14:05;;;;;;;26.75;15.95;;;;;;;;;;5070078;28;20021;-62
2021/10/19 02:16:31;;;;;;;23.38;14.73;;;;;;;;;;5069800;28;20025;-63
2021/10/19 02:18:57;;;;;;;24.88;15.80;;;;;;;;;;5070126;28;20031;-63
2021/10/19 02:21:23;;;;;;;23.92;15.45;;;;;;;;;;5070246;28;20040;-66
2021/10/19 02:23:49;;;;;;;24.20;14.82;;;;;;;;;;5071141;28;20029;-64
2021/10/19 02:26:15;;;;;;;23.77;15.75;;;;;;;;;;5071666;28;20106;-63
2021/10/19 02:28:41;;;;;;;26.05;16.05;;;;;;;;;;5073960;28;20226;-62
2021/10/19 02:31:07;;;;;;;25.45;16.85;;;;;;;;;;5074054;28;20021;-62
2021/10/19 02:33:33;;;;;;;26.48;16.05;;;;;;;;;;5073799;28;20472;-62
2021/10/19 02:35:59;;;;;;;23.92;15.98;;;;;;;;;;5073680;28;20024;-64
2021/10/19 02:38:25;;;;;;;26.67;16.40;;;;;;;;;;5073955;28;20040;-64
2021/10/19 02:40:51;;;;;;;25.52;16.08;;;;;;;;;;5073790;28;20411;-66
2021/10/19 02:43:17;;;;;;;23.45;14.82;;;;;;;;;;5073821;28;20036;-63
2021/10/19 02:45:43;;;;;;;23.58;15.70;;;;;;;;;;5073364;28;20040;-65
2021/10/19 02:48:09;;;;;;;25.60;16.58;;;;;;;;;;5073555;28;20468;-64
2021/10/19 02:50:36;;;;;;;26.60;15.80;;;;;;;;;;5073580;28;20158;-63
2021/10/19 02:53:02;;;;;;;23.52;15.70;;;;;;;;;;5073898;28;20032;-67
2021/10/19 02:55:28;;;;;;;23.25;15.55;;;;;;;;;;5073367;28;20052;-66
2021/10/19 02:57:54;;;;;;;24.50;15.68;;;;;;;;;;5073177;28;20106;-63
2021/10/19 03:00:20;;;;;;;24.17;15.75;;;;;;;;;;5073185;28;20021;-63
2021/10/19 03:02:46;;;;;;;25.98;16.83;;;;;;;;;;5073416;28;20024;-67
2021/10/19 03:05:12;;;;;;;24.50;16.45;;;;;;;;;;5073281;28;20059;-64
2021/10/19 03:07:38;;;;;;;24.58;15.90;;;;;;;;;;5073046;28;20075;-65
2021/10/19 03:10:05;;;;;;;24.90;16.02;;;;;;;;;;5073166;28;20075;-64
2021/10/19 03:12:31;;;;;;;24.33;15.43;;;;;;;;;;5073276;28;20480;-66
2021/10/19 03:14:57;;;;;;;23.88;15.65;;;;;;;;;;5073099;28;20035;-64
2021/10/19 03:17:23;;;;;;;25.52;16.65;;;;;;;;;;5072967;28;20073;-63
2021/10/19 03:19:49;;;;;;;23.25;15.50;;;;;;;;;;5072853;28;20036;-63
2021/10/19 03:22:15;;;;;;;27.17;16.05;;;;;;;;;;5073192;28;20050;-63
2021/10/19 03:24:41;;;;;;;25.75;16.30;;;;;;;;;;5073127;28;20159;-62
2021/10/19 03:27:07;;;;;;;26.83;17.27;;;;;;;;;;5072716;28;20058;-65
2021/10/19 03:29:33;;;;;;;23.48;16.02;;;;;;;;;;5072665;28;20017;-62
2021/10/19 03:31:59;;;;;;;25.45;16.58;;;;;;;;;;5072692;28;20027;-64
2021/10/19 03:34:25;;;;;;;24.50;16.02;;;;;;;;;;5072759;28;20075;-62
2021/10/19 03:36:51;;;;;;;25.75;17.75;;;;;;;;;;5072096;28;20016;-64
2021/10/19 03:39:17;;;;;;;25.70;16.02;;;;;;;;;;5072611;28;20033;-63
2021/10/19 03:41:44;;;;;;;25.65;17.20;;;;;;;;;;5072441;28;20395;-63
2021/10/19 03:44:10;;;;;;;24.75;15.57;;;;;;;;;;5072671;28;20211;-64
2021/10/19 03:46:36;;;;;;;24.00;15.07;;;;;;;;;;5072250;28;20534;-64
2021/10/19 03:49:03;;;;;;;24.48;16.10;;;;;;;;;;5072245;28;20082;-62
2021/10/19 03:51:29;;;;;;;23.58;16.10;;;;;;;;;;5072458;28;20068;-66
2021/10/19 03:53:54;;;;;;;25.48;16.83;;;;;;;;;;5072413;28;20080;-65
2021/10/19 03:56:20;;;;;;;24.98;16.92;;;;;;;;;;5072044;28;20173;-63
2021/10/19 03:58:46;;;;;;;24.88;17.00;;;;;;;;;;5072225;28;20119;-63
2021/10/19 04:01:12;;;;;;;27.48;16.13;;;;;;;;;;5072498;28;20123;-62
2021/10/19 04:03:38;;;;;;;25.02;17.27;;;;;;;;;;5072519;28;20056;-63
2021/10/19 04:06:04;;;;;;;24.65;16.23;;;;;;;;;;5072137;28;20069;-62
2021/10/19 04:08:30;;;;;;;26.25;16.70;;;;;;;;;;5072031;28;20119;-63
2021/10/19 04:10:58;;;;;;;24.73;16.38;;;;;;;;;;5071958;28;20115;-62
2021/10/19 04:13:24;;;;;;;26.13;17.40;;;;;;;;;;5072003;28;20489;-63
2021/10/19 04:15:50;;;;;;;25.27;17.08;;;;;;;;;;5071624;28;20020;-65
2021/10/19 04:18:16;;;;;;;24.30;16.83;;;;;;;;;;5071779;28;20078;-65
2021/10/19 04:20:42;;;;;;;25.63;16.20;;;;;;;;;;5071482;28;20033;-65
2021/10/19 04:23:08;;;;;;;23.85;15.70;;;;;;;;;;5071683;28;20054;-64
2021/10/19 04:25:34;;;;;;;23.45;14.95;;;;;;;;;;5071720;28;20021;-62
2021/10/19 04:28:00;;;;;;;28.23;17.95;;;;;;;;;;5071881;28;20119;-62
2021/10/19 04:30:26;;;;;;;25.83;15.88;;;;;;;;;;5071735;28;20048;-64
2021/10/19 04:32:52;;;;;;;23.48;15.93;;;;;;;;;;5071874;28;20103;-61
2021/10/19 04:35:18;;;;;;;27.58;18.50;;;;;;;;;;5071684;28;20059;-62
2021/10/19 04:37:44;;;;;;;25.88;17.45;;;;;;;;;;5071610;28;20025;-64
2021/10/19 04:40:10;;;;;;;25.10;16.63;;;;;;;;;;5071590;28;20016;-64
2021/10/19 04:42:37;;;;;;;26.63;17.55;;;;;;;;;;5071618;28;20031;-64
2021/10/19 04:45:03;;;;;;;27.00;17.95;;;;;;;;;;5071605;28;20036;-60
2021/10/19 04:47:29;;;;;;;28.35;18.23;;;;;;;;;;5071299;28;20032;-64
2021/10/19 04:49:58;;;;;;;27.77;16.33;;;;;;;;;;5070819;28;20034;-61
2021/10/19 04:52:24;;;;;;;23.45;15.77;;;;;;;;;;5071628;28;20035;-63
2021/10/19 04:54:50;;;;;;;28.02;17.15;;;;;;;;;;5071228;28;20028;-64
2021/10/19 04:57:16;;;;;;;27.20;18.10;;;;;;;;;;5070836;28;20027;-63
2021/10/19 04:59:42;;;;;;;24.45;16.10;;;;;;;;;;5070848;28;20025;-65
2021/10/19 05:02:08;;;;;;;24.63;16.70;;;;;;;;;;5070991;28;20384;-64
2021/10/19 05:04:34;;;;;;;25.02;16.05;;;;;;;;;;5068593;28;20038;-65
2021/10/19 05:07:00;;;;;;;25.45;17.20;;;;;;;;;;5059607;28;20472;-62
2021/10/19 05:09:26;;;;;;;27.42;17.02;;;;;;;;;;5063873;28;20111;-65
2021/10/19 05:11:52;;;;;;;24.55;16.13;;;;;;;;;;5070760;28;20024;-63
2021/10/19 05:14:18;;;;;;;26.13;15.77;;;;;;;;;;5052028;28;20162;-65
2021/10/19 05:16:44;;;;;;;24.60;16.77;;;;;;;;;;5050656;28;20075;-65
2021/10/19 05:19:10;;;;;;;27.88;17.90;;;;;;;;;;5050177;28;20032;-65
2021/10/19 05:21:36;;;;;;;26.55;17.10;;;;;;;;;;5058694;28;20032;-64
2021/10/19 05:24:02;;;;;;;25.85;16.92;;;;;;;;;;5070218;28;20029;-63
2021/10/19 05:26:28;;;;;;;23.50;16.40;;;;;;;;;;5070825;28;20119;-61
2021/10/19 05:28:54;;;;;;;31.38;18.10;;;;;;;;;;5070365;28;20111;-60
2021/10/19 05:31:20;;;;;;;23.17;15.65;;;;;;;;;;5070440;28;20035;-60
2021/10/19 05:33:46;;;;;;;25.85;16.05;;;;;;;;;;5070311;28;20042;-62
2021/10/19 05:36:12;;;;;;;26.50;17.23;;;;;;;;;;5070651;28;20017;-61
2021/10/19 05:38:38;;;;;;;25.52;17.17;;;;;;;;;;5062383;28;20029;-64
2021/10/19 05:41:04;;;;;;;24.30;16.23;;;;;;;;;;5050067;28;20119;-63
2021/10/19 05:43:30;;;;;;;26.45;18.20;;;;;;;;;;5050134;28;20021;-64
2021/10/19 05:45:56;;;;;;;26.50;16.83;;;;;;;;;;5049779;28;20020;-65
2021/10/19 05:48:22;;;;;;;26.73;17.45;;;;;;;;;;5049992;28;20071;-64
2021/10/19 05:50:48;;;;;;;29.08;17.60;;;;;;;;;;5050910;28;20426;-65
2021/10/19 05:53:14;;;;;;;25.98;17.52;;;;;;;;;;5049884;28;20029;-65
2021/10/19 05:55:41;;;;;;;26.27;16.48;;;;;;;;;;5049871;28;20100;-64
2021/10/19 05:58:07;;;;;;;24.90;17.42;;;;;;;;;;5050295;28;20033;-62
2021/10/19 06:00:33;;;;;;;25.38;16.38;;;;;;;;;;5050090;28;20407;-65
2021/10/19 06:02:59;;;;;;;27.08;18.15;;;;;;;;;;5050240;28;20067;-65
2021/10/19 06:05:25;;;;;;;27.17;16.38;;;;;;;;;;5062191;28;20500;-66
2021/10/19 06:07:51;;;;;;;24.70;16.20;;;;;;;;;;5069589;28;20051;-66
2021/10/19 06:10:21;;;;;;;25.50;16.92;;;;;;;;;;5070364;28;20020;-62
2021/10/19 06:12:47;;;;;;;26.38;16.48;;;;;;;;;;5070540;28;20473;-62
2021/10/19 06:15:15;;;;;;;25.67;17.20;;;;;;;;;;5069743;28;20112;-65
2021/10/19 06:17:41;;;;;;;28.05;18.70;;;;;;;;;;5069725;28;20032;-66
2021/10/19 06:20:08;;;;;;;26.35;16.67;;;;;;;;;;5096757;22;20135;-66
2021/10/19 06:22:34;;;;;;;26.52;18.25;;;;;;;;;;5071772;28;20032;-67
2021/10/19 06:25:00;;;;;;;28.98;18.77;;;;;;;;;;5071966;28;20069;-67
2021/10/19 06:27:26;;;;;;;30.00;19.45;;;;;;;;;;5071902;28;20363;-67
2021/10/19 06:29:52;;;;;;;26.58;17.40;;;;;;;;;;5071870;28;20028;-66
2021/10/19 06:32:18;;;;;;;25.98;17.50;;;;;;;;;;5071289;28;20486;-67
2021/10/19 06:34:44;;;;;;;29.50;19.00;;;;;;;;;;5071496;28;20035;-67
2021/10/19 06:37:10;;;;;;;29.67;19.58;;;;;;;;;;5071249;28;20544;-67
2021/10/19 06:39:36;;;;;;;30.77;19.38;;;;;;;;;;5071355;28;20047;-67
2021/10/19 06:42:02;;;;;;;27.73;19.27;;;;;;;;;;5071502;28;20016;-68
2021/10/19 06:44:28;;;;;;;30.25;19.90;;;;;;;;;;5070508;28;20020;-67
2021/10/19 06:46:54;;;;;;;28.25;18.73;;;;;;;;;;5071161;28;20529;-67
2021/10/19 06:49:20;;;;;;;31.02;20.88;;;;;;;;;;5071296;28;20021;-66
2021/10/19 06:51:46;;;;;;;28.73;20.52;;;;;;;;;;5089610;28;20039;-67
2021/10/19 06:54:13;;;;;;;32.38;21.80;;;;;;;;;;5089404;28;20088;-66
2021/10/19 06:56:39;;;;;;;31.02;21.65;;;;;;;;;;5071128;28;20024;-67
2021/10/19 06:59:05;;;;;;;29.48;19.52;;;;;;;;;;5071454;28;20394;-66
2021/10/19 07:01:31;;;;;;;30.05;21.35;;;;;;;;;;5071813;28;20067;-66
2021/10/19 07:03:57;;;;;;;28.95;19.65;;;;;;;;;;5071751;28;20042;-66
2021/10/19 07:06:24;;;;;;;29.42;20.23;;;;;;;;;;5071090;28;20024;-66
2021/10/19 07:08:50;;;;;;;30.27;20.67;;;;;;;;;;5071437;28;20072;-66
2021/10/19 07:11:16;;;;;;;33.75;18.65;;;;;;;;;;5072034;28;20021;-67
2021/10/19 07:13:42;;;;;;;30.90;19.52;;;;;;;;;;5075140;28;20407;-68
2021/10/19 07:16:08;;;;;;;30.83;18.70;;;;;;;;;;5075031;28;20020;-66
2021/10/19 07:18:34;;;;;;;26.77;19.42;;;;;;;;;;5075142;28;20024;-67
2021/10/19 07:21:01;;;;;;;28.52;18.23;;;;;;;;;;5074983;28;20475;-68
2021/10/19 07:23:27;;;;;;;27.95;18.58;;;;;;;;;;5075210;28;20073;-67
2021/10/19 07:25:53;;;;;;;30.25;19.92;;;;;;;;;;5074737;28;20068;-67
2021/10/19 07:28:19;;;;;;;30.63;19.55;;;;;;;;;;5075223;28;20449;-65
2021/10/19 07:30:45;;;;;;;33.13;17.98;;;;;;;;;;5075034;28;20024;-68
2021/10/19 07:33:12;;;;;;;29.63;18.13;;;;;;;;;;5075229;28;20030;-67
2021/10/19 07:35:38;;;;;;;33.05;19.45;;;;;;;;;;5074905;28;20433;-67
2021/10/19 07:38:05;;;;;;;35.63;20.98;;;;;;;;;;5075051;28;20024;-67
2021/10/19 07:40:31;;;;;;;37.95;19.15;;;;;;;;;;5074718;28;20368;-74
2021/10/19 07:42:57;;;;;;;36.80;19.08;;;;;;;;;;5074638;28;20406;-68
2021/10/19 07:45:23;;;;;;;34.60;18.67;;;;;;;;;;5074541;28;20028;-68
2021/10/19 07:47:50;;;;;;;27.23;17.02;;;;;;;;;;5074473;28;20024;-68
2021/10/19 07:50:18;;;;;;;28.98;18.25;;;;;;;;;;5074536;28;20017;-68
2021/10/19 07:52:44;;;;;;;35.95;19.27;;;;;;;;;;5074394;28;20028;-67
2021/10/19 07:55:11;;;;;;;27.73;16.63;;;;;;;;;;5074514;28;20027;-68
2021/10/19 07:57:44;;;;;;;25.33;15.85;;;;;;;;;;5073771;28;20396;-70
2021/10/19 08:00:11;;;;;;;28.33;17.30;;;;;;;;;;5073635;28;20111;-68
2021/10/19 08:02:41;;;;;;;33.78;17.40;;;;;;;;;;5074289;28;20028;-68
2021/10/19 08:05:12;;;;;;;28.70;15.73;;;;;;;;;;5074380;28;20154;-68
2021/10/19 08:07:38;;;;;;;29.00;16.50;;;;;;;;;;5074624;28;20028;-69
2021/10/19 08:10:04;;;;;;;26.63;15.05;;;;;;;;;;5073948;28;20476;-68
2021/10/19 08:12:30;;;;;;;31.40;17.15;;;;;;;;;;5073989;28;20475;-69
2021/10/19 08:15:00;;;;;;;28.42;15.13;;;;;;;;;;5074116;28;20020;-68
2021/10/19 08:17:26;;;;;;;25.40;13.38;;;;;;;;;;5074052;28;20081;-68
2021/10/19 08:19:58;;;;;;;27.05;14.32;;;;;;;;;;5073983;28;20028;-68
2021/10/19 08:22:24;;;;;;;27.58;12.30;;;;;;;;;;5073648;28;20020;-69
2021/10/19 08:24:50;;;;;;;23.45;13.77;;;;;;;;;;5073264;28;20058;-69
2021/10/19 08:27:16;;;;;;;24.30;13.13;;;;;;;;;;5073573;28;20048;-68
2021/10/19 08:29:42;;;;;;;26.52;13.65;;;;;;;;;;5073758;28;20468;-68
2021/10/19 08:32:08;;;;;;;28.02;14.30;;;;;;;;;;5073599;28;20368;-69
2021/10/19 08:34:34;;;;;;;22.13;13.85;;;;;;;;;;5073523;28;20031;-67
2021/10/19 08:37:00;;;;;;;26.58;14.30;;;;;;;;;;5073324;28;20020;-68
2021/10/19 08:39:26;;;;;;;23.50;14.40;;;;;;;;;;5073312;28;20494;-68
2021/10/19 08:41:52;;;;;;;31.58;14.13;;;19.70;99.90;;;;;;5073488;28;20109;-68
2021/10/19 08:44:18;;;;;;;24.65;14.73;;;14.30;99.90;;;;;;5073365;28;20402;-68
2021/10/19 08:46:43;;;;;;;23.30;13.70;;;14.10;99.90;;;;;;5073440;28;20024;-68
2021/10/19 08:49:09;;;;;;;23.73;13.45;;;14.20;99.90;;;;;;5073682;28;20024;-68
2021/10/19 08:51:37;;;;;;;21.80;13.25;;;14.20;99.90;;;;;;5073425;28;20020;-69
2021/10/19 08:54:06;;;;;;;23.05;13.45;;;14.20;99.90;;;;;;5072918;28;20028;-67
2021/10/19 08:56:35;;;;;;;23.85;13.43;;;14.20;99.90;;;;;;5073021;28;20032;-69
2021/10/19 08:59:00;;;;;;;;;;;14.20;99.90;;;;;;5073124;28;20099;-68
2021/10/19 09:01:37;;;;;;;23.85;13.32;;;14.20;99.90;;;;;;5073303;28;19965;-67
2021/10/19 09:04:07;;;;;;;22.70;12.73;;;14.30;99.90;;;;;;5073040;28;20529;-66
2021/10/19 09:06:34;;;;;;;21.15;13.02;;;14.30;99.90;;;;;;5072489;28;20028;-68
2021/10/19 09:09:24;;;;;;;24.33;13.98;;;;;;;;;;5072516;28;20043;-67
2021/10/19 09:11:51;;;;;;;22.95;12.13;;;;;;;;;;5072953;28;20413;-67
2021/10/19 09:14:19;;;;;;;24.17;13.05;;;;;;;;;;5072649;28;20383;-67
2021/10/19 09:16:45;;;;;;;29.00;13.95;;;;;;;;;;5072549;28;20073;-66
2021/10/19 09:19:13;;;;;;;23.48;13.00;;;;;;;;;;5072557;28;20476;-67
2021/10/19 09:21:43;;;;;;;23.25;12.95;;;;;;;;;;5071746;28;20036;-67
2021/10/19 09:24:18;;;;;;;20.33;12.70;;;;;;;;;;5072389;28;20020;-68
2021/10/19 09:26:54;;;;;;;23.52;13.48;;;;;;;;;;5069969;28;20544;-68
2021/10/19 09:29:21;;;;;;;26.00;14.20;;;;;;;;;;5070283;28;20127;-67
2021/10/19 09:31:51;;;;;;;20.02;13.38;;;;;;;;;;5072185;28;20016;-68
2021/10/19 09:34:17;;;;;;;22.45;12.65;;;;;;;;;;5071843;28;20020;-68
2021/10/19 09:36:43;;;;;;;21.80;14.15;;;;;;;;;;5072110;28;20020;-67
2021/10/19 09:39:09;;;;;;;21.42;14.15;;;;;;;;;;5075630;28;20020;-68
2021/10/19 09:41:44;;;;;;;23.77;14.63;;;;;;;;;;5077736;28;20028;-68
2021/10/19 09:44:16;;;;;;;21.83;13.95;;;;;;;;;;5076968;28;20079;-68
2021/10/19 09:46:43;;;;;;;21.08;13.07;;;;;;;;;;5076883;28;20095;-67
2021/10/19 09:49:09;;;;;;;22.95;14.52;;;;;;;;;;5075105;28;20024;-68
2021/10/19 09:51:39;;;;;;;21.08;13.32;;;;;;;;;;5077581;28;20039;-69
2021/10/19 09:54:09;;;;;;;21.02;12.80;;;;;;;;;;5077396;28;20107;-69
2021/10/19 09:56:41;;;;;;;19.98;12.43;;;;;;;;;;5075865;28;20036;-69
2021/10/19 09:59:07;;;;;;;20.30;13.77;;;;;;;;;;5053167;28;20101;-70
2021/10/19 10:01:34;;;;;;;20.27;13.57;;;;;;;;;;5077760;28;20065;-69
2021/10/19 10:04:00;;;;;;;20.92;14.50;;;;;;;;;;5077550;28;20024;-69
2021/10/19 10:06:27;;;;;;;20.75;14.15;;;;;;;;;;5073619;28;20028;-68
2021/10/19 10:08:53;;;;;;;21.88;14.73;;;;;;;;;;5076593;28;20115;-69
2021/10/19 10:11:21;;;;;;;22.90;14.88;;;;;;;;;;5073750;28;20046;-69
2021/10/19 10:14:04;;;;;;;24.10;15.00;;;;;;;;;;5073797;28;20340;-69
2021/10/19 10:16:41;;;;;;;21.70;15.73;;;;;;;;;;5073172;28;20375;-69
2021/10/19 10:19:14;;;;;;;24.25;16.25;;;;;;;;;;5072601;28;20050;-71
2021/10/19 10:21:48;;;;;;;22.02;16.13;;;;;;;;;;5071945;28;20080;-66
2021/10/19 10:24:14;;;;;;;21.95;15.80;;;;;;;;;;5072563;28;20024;-67
2021/10/19 10:26:40;;;;;;;21.35;15.68;;;;;;;;;;5072349;28;20105;-68
2021/10/19 10:29:10;;;;;;;22.15;15.90;;;;;;;;;;5071462;28;20475;-67
2021/10/19 10:31:54;;;;;;;22.08;17.10;;;;;;;;;;5071922;28;20027;-66
2021/10/19 10:34:30;;;;;;;23.02;16.58;;;;;;;;;;5072051;28;20012;-66
2021/10/19 10:37:07;;;;;;;22.33;16.58;;;;;;;;;;5071615;28;20020;-66
2021/10/19 10:39:36;;;;;;;23.42;16.75;;;;;;;;;;5071819;28;20101;-66
2021/10/19 10:42:09;;;;;;;21.50;16.90;;;;;;;;;;5071691;28;20031;-65
2021/10/19 10:44:36;;;;;;;22.98;16.65;;;;;;;;;;5090523;28;20398;-66
2021/10/19 10:47:05;;;;;;;23.00;15.50;;;;;;;;;;5091726;28;20103;-66
2021/10/19 10:49:32;;;;;;;26.38;16.13;;;;;;;;;;5094098;28;20444;-65
2021/10/19 10:52:00;;;;;;;21.17;14.55;;;;;;;;;;5076199;28;20061;-66
2021/10/19 10:54:26;;;;;;;21.83;15.87;;;;;;;;;;5094370;28;20019;-66
2021/10/19 10:56:53;;;;;;;22.60;16.55;;;;;;;;;;5093698;28;20077;-66
2021/10/19 10:59:26;;;;;;;23.55;16.90;;;;;;;;;;5075895;28;20107;-67
2021/10/19 11:01:54;;;;;;;23.08;17.35;;;;;;;;;;5075418;28;20065;-66
2021/10/19 11:04:20;;;;;;;25.65;18.67;;;;;;;;;;5075162;28;20115;-66
2021/10/19 11:06:46;;;;;;;23.13;17.20;;;;;;;;;;5093670;28;20051;-66
2021/10/19 11:09:16;;;;;;;22.63;18.33;;;;;;;;;;5074865;28;20495;-66
2021/10/19 11:11:46;;;;;;;23.65;19.52;;;;;;;;;;5093364;28;20046;-66
2021/10/19 11:14:14;;;;;;;24.25;19.38;;;;;;;;;;5075698;28;20030;-66
2021/10/19 11:16:45;;;;;;;24.27;19.88;;;;;;;;;;5075150;28;20020;-66
2021/10/19 11:19:19;;;;;;;23.98;21.45;;;;;;;;;;5075313;28;20020;-66
2021/10/19 11:21:46;;;;;;;24.65;22.05;;;;;;;;;;5075470;28;20449;-67
2021/10/19 11:24:12;;;;;;;24.88;22.13;;;;;;;;;;5074834;28;20123;-66
2021/10/19 11:26:38;;;;;;;24.90;21.75;;;;;;;;;;5074821;28;20024;-66
2021/10/19 11:29:05;;;;;;;23.30;20.80;;;;;;;;;;5074794;28;20480;-66
2021/10/19 11:31:33;;;;;;;26.50;23.15;;;;;;;;;;5075348;28;20157;-66
2021/10/19 11:33:59;;;;;;;25.13;21.77;;;;;;;;;;5075011;28;20027;-66
2021/10/19 11:36:26;;;;;;;25.40;22.88;;;;;;;;;;5075001;28;20047;-67
2021/10/19 11:38:53;;;;;;;26.45;23.75;;;;;;;;;;5075377;28;20436;-65
2021/10/19 11:41:24;;;;;;;25.58;21.80;;;;;;;;;;5075101;28;20067;-66
2021/10/19 11:43:53;;;;;;;26.33;23.73;;;;;;;;;;5074975;28;20115;-66
2021/10/19 11:46:20;;;;;;;25.42;22.92;;;;;;;;;;5074590;28;20551;-66
2021/10/19 11:48:51;;;;;;;28.20;25.48;;;;;;;;;;5074754;28;20058;-66
2021/10/19 11:51:18;;;;;;;30.17;27.27;;;;;;;;;;5075055;28;20044;-67
2021/10/19 11:53:45;;;;;;;29.33;26.55;;;;;;;;;;5075206;28;20082;-66
2021/10/19 11:56:12;;;;;;;31.65;28.73;;;;;;;;;;5074761;28;20399;-68
2021/10/19 11:58:52;;;;;;;32.08;29.17;;;;;;;;;;5074774;28;20456;-66
2021/10/19 12:01:18;;;;;;;30.52;27.55;;;;;;;;;;5074626;28;20032;-68
2021/10/19 12:03:53;;;;;;;31.38;28.52;;;;;;;;;;5074877;28;20031;-66
2021/10/19 12:06:23;;;;;;;32.72;29.42;;;;;;;;;;5074320;28;20020;-66
2021/10/19 12:08:49;;;;;;;31.65;28.83;;;;;;;;;;5074623;28;20391;-67
2021/10/19 12:11:15;;;;;;;31.77;28.92;;;;;;;;;;5074665;28;20027;-68
2021/10/19 12:13:42;;;;;;;29.23;26.33;;;;;;;;;;5074833;28;20020;-67
2021/10/19 12:16:10;;;;;;;31.60;28.70;;;;;;;;;;5075807;28;20456;-67
2021/10/19 12:18:41;;;;;;;30.80;27.70;;;;;;;;;;5074562;28;20020;-66
2021/10/19 12:21:07;;;;;;;31.20;28.08;;;;;;;;;;5085920;22;20049;-68
2021/10/19 12:23:33;;;;;;;31.35;28.25;;;;;;;;;;5070110;28;20032;-68
2021/10/19 12:26:02;;;;;;;29.02;25.75;;;;;;;;;;5071571;28;20025;-68
2021/10/19 12:28:29;;;;;;;30.55;27.63;;;;;;;;;;5071955;28;20127;-66
2021/10/19 12:30:59;;;;;;;30.90;28.00;;;;;;;;;;5072182;28;20025;-68
2021/10/19 12:33:27;;;;;;;29.38;26.67;;;;;;;;;;5071310;28;20040;-68
2021/10/19 12:35:54;;;;;;;29.05;26.15;;;;;;;;;;5072892;28;20092;-68
2021/10/19 12:38:20;;;;;;;28.55;25.75;;;;;;;;;;5072029;28;20027;-68
2021/10/19 12:40:48;;;;;;;27.92;25.23;;;;;;;;;;5071902;28;20028;-68
2021/10/19 12:43:14;;;;;;;28.92;25.83;;;;;;;;;;5073282;28;20077;-68
2021/10/19 12:45:40;;;;;;;28.65;25.67;;;;;;;;;;5071558;28;20027;-68
2021/10/19 12:48:07;;;;;;;28.02;24.90;;;;;;;;;;5071419;28;20029;-68
2021/10/19 12:50:34;;;;;;;26.45;23.75;;;;;;;;;;5073158;28;20021;-68
2021/10/19 12:53:00;;;;;;;27.13;24.33;;;;;;;;;;5072555;28;20168;-68
2021/10/19 12:55:26;;;;;;;26.15;23.45;;;;;;;;;;5072663;28;20027;-67
2021/10/19 12:57:53;;;;;;;26.13;23.42;;;;;;;;;;5071104;28;20028;-68
2021/10/19 13:00:19;;;;;;;25.98;22.30;;;;;;;;;;5071283;28;20367;-68
2021/10/19 13:02:45;;;;;;;27.27;23.77;;;;;;;;;;5072354;28;20078;-66
2021/10/19 13:05:12;;;;;;;27.67;23.98;;;;;;;;;;4717874;28;9999901;-67
2021/10/19 13:07:38;;;;;;;27.50;22.23;;;;;;;;;;5068752;28;20113;-67
2021/10/19 13:10:04;;;;;;;26.77;22.90;;;;;;;;;;5069758;28;20017;-66
2021/10/19 13:12:31;;;;;;;31.25;26.65;;;;;;;;;;5068563;28;20017;-68
2021/10/19 13:14:57;;;;;;;29.42;24.50;;;;;;;;;;5070229;28;20051;-68
2021/10/19 13:17:23;;;;;;;31.50;25.45;;;;;;;;;;5069991;28;20024;-68
2021/10/19 13:19:49;;;;;;;29.95;24.35;;;;;;;;;;5069908;28;20519;-69
2021/10/19 13:22:15;;;;;;;31.77;27.08;;;;;;;;;;5069816;28;20028;-65
2021/10/19 13:24:41;;;;;;;30.00;26.15;;;;;;;;;;5069849;28;20012;-67
2021/10/19 13:27:07;;;;;;;34.65;28.60;;;;;;;;;;5068009;28;20084;-67
2021/10/19 13:29:36;;;;;;;33.53;27.30;;;;;;;;;;5068867;28;20131;-68
2021/10/19 13:32:03;;;;;;;31.30;26.55;;;;;;;;;;5068474;28;20021;-68
2021/10/19 13:34:29;;;;;;;31.27;25.60;;;;;;;;;;5069070;28;20045;-68
2021/10/19 13:36:55;;;;;;;31.15;26.17;;;;;;;;;;5067227;28;20491;-68
2021/10/19 13:39:21;;;;;;;33.20;25.98;;;;;;;;;;5067133;28;20086;-67
2021/10/19 13:41:50;;;;;;;32.47;26.23;;;;;;;;;;5067457;28;20017;-67
2021/10/19 13:44:17;;;;;;;34.95;28.08;;;;;;;;;;5068008;28;20034;-68
2021/10/19 13:46:43;;;;;;;33.85;26.73;;;;;;;;;;5068422;28;20024;-68
2021/10/19 13:49:09;;;;;;;34.63;28.02;;;;;;;;;;5069500;28;20032;-67
2021/10/19 13:51:35;;;;;;;37.47;31.23;;;;;;;;;;5066948;28;20095;-67
2021/10/19 13:54:01;;;;;;;37.10;31.52;;;;;;;;;;5068808;28;20353;-69
2021/10/19 13:56:27;;;;;;;35.80;29.83;;;;;;;;;;5066632;28;20016;-68
2021/10/19 13:58:53;;;;;;;35.78;30.70;;;;;;;;;;5069217;28;20024;-70
2021/10/19 14:01:19;;;;;;;36.80;30.88;;;;;;;;;;5068281;28;20025;-69
2021/10/19 14:03:45;;;;;;;37.42;32.42;;;;;;;;;;5068597;28;20024;-68
2021/10/19 14:06:13;;;;;;;40.00;32.80;;;;;;;;;;5067380;28;20028;-69
2021/10/19 14:08:39;;;;;;;38.95;31.30;;;;;;;;;;5069400;28;20114;-69
2021/10/19 14:11:06;;;;;;;41.67;33.28;;;;;;;;;;5069259;28;20353;-70
2021/10/19 14:13:32;;;;;;;37.83;30.80;;;;;;;;;;5067546;28;20056;-69